Jamieson, Oregon
Current Conditions -  °F | °C
As of 11:04 AM on Saturday 22 Nov 2014 (Local Time) from KONO Reporting Station
Haze Haze  
Wind Chill: 32°   Ceiling: Unl
Heat Index: 32°   Visibility: 1mi
Dew Point: 30°   Wind: 0mph
Humidity: 92%   Direction: NA
Pressure: 29.8"   Gusts: NA
Location:  44.18°N, 117.44°W
Report Text: KONO 221804Z AUTO 00000KT 1SM BR CLR 00/M01 A2980 RMK AO2 T00001011
Loading
Personal Weather Stations






























Interactive Weather Map New forecast layout! Learn more

10-Day Weather Forecast

Advertisements
Track Severe Weather on mobile